createdAt,value
2019-02-10T00:02:04.886Z,85.98
2019-02-10T00:05:07.983Z,85.30
2019-02-10T00:08:11.066Z,85.05
2019-02-10T00:11:14.167Z,85.09
2019-02-10T00:14:17.260Z,85.26
2019-02-10T00:17:20.345Z,85.28
2019-02-10T00:20:23.437Z,85.36
2019-02-10T00:23:26.535Z,85.34
2019-02-10T00:26:29.627Z,85.18
2019-02-10T00:29:32.813Z,85.33
2019-02-10T00:32:35.908Z,85.42
2019-02-10T00:35:39.018Z,85.60
2019-02-10T00:38:42.191Z,85.89
2019-02-10T00:41:45.275Z,85.52
2019-02-10T00:44:48.379Z,85.48
2019-02-10T00:47:51.450Z,85.49
2019-02-10T00:50:54.847Z,85.58
2019-02-10T00:53:57.961Z,85.42
2019-02-10T00:57:01.055Z,85.70
2019-02-10T01:00:04.200Z,85.87
2019-02-10T01:03:07.340Z,85.79
2019-02-10T01:06:10.415Z,86.02
2019-02-10T01:09:13.524Z,86.00
2019-02-10T01:12:16.605Z,86.15
2019-02-10T01:15:19.700Z,86.51
2019-02-10T01:18:22.785Z,86.12
2019-02-10T01:21:25.875Z,86.06
2019-02-10T01:24:28.972Z,85.98
2019-02-10T01:27:32.079Z,85.36
2019-02-10T01:30:35.172Z,84.52
2019-02-10T01:33:38.351Z,83.51
2019-02-10T01:36:49.217Z,83.83
2019-02-10T01:39:44.547Z,83.47
2019-02-10T01:42:49.127Z,82.77
2019-02-10T01:45:52.261Z,81.84
2019-02-10T01:48:55.349Z,81.58
2019-02-10T01:51:58.450Z,81.55
2019-02-10T01:55:01.541Z,81.70
2019-02-10T01:58:04.635Z,82.84
2019-02-10T02:01:07.717Z,82.82
2019-02-10T02:04:10.817Z,83.29
2019-02-10T02:07:13.895Z,83.30
2019-02-10T02:10:17.004Z,82.94
2019-02-10T02:13:20.070Z,82.47
2019-02-10T02:16:23.197Z,82.06
2019-02-10T02:19:26.276Z,81.52
2019-02-10T02:22:29.371Z,81.48
2019-02-10T02:25:32.547Z,80.52
2019-02-10T02:28:35.643Z,80.24
2019-02-10T02:31:38.751Z,80.29
2019-02-10T02:34:41.816Z,81.07
2019-02-10T02:37:44.932Z,81.38
2019-02-10T02:40:48.007Z,81.57
2019-02-10T02:43:51.109Z,81.84
2019-02-10T02:46:54.202Z,81.42
2019-02-10T02:49:57.279Z,81.24
2019-02-10T02:53:00.388Z,81.09
2019-02-10T02:56:03.488Z,80.26
2019-02-10T02:59:06.560Z,80.76
2019-02-10T03:02:09.652Z,80.23
2019-02-10T03:05:12.753Z,79.67
2019-02-10T03:08:15.811Z,79.77
2019-02-10T03:11:18.889Z,79.83
2019-02-10T03:14:22.041Z,80.46
2019-02-10T03:17:25.230Z,80.46
2019-02-10T03:20:28.318Z,80.09
2019-02-10T03:23:31.402Z,79.79
2019-02-10T03:26:34.494Z,80.23
2019-02-10T03:29:37.585Z,80.71
2019-02-10T03:32:40.718Z,80.92
2019-02-10T03:35:43.784Z,81.35
2019-02-10T03:38:46.873Z,81.44
2019-02-10T03:41:49.963Z,81.45
2019-02-10T03:44:53.262Z,81.71
2019-02-10T03:47:56.350Z,81.71
2019-02-10T03:50:59.453Z,81.54
2019-02-10T03:54:02.497Z,81.82
2019-02-10T03:57:05.551Z,81.41
2019-02-10T04:00:08.880Z,81.52
2019-02-10T04:03:11.947Z,81.22
2019-02-10T04:06:15.103Z,81.99
2019-02-10T04:09:18.168Z,81.95
2019-02-10T04:12:21.283Z,81.81
2019-02-10T04:15:24.382Z,81.97
2019-02-10T04:18:27.475Z,82.02
2019-02-10T04:21:30.541Z,82.09
2019-02-10T04:24:34.682Z,81.62
2019-02-10T04:27:38.026Z,82.31
2019-02-10T04:30:41.092Z,82.42
2019-02-10T04:33:44.254Z,81.83
2019-02-10T04:36:47.350Z,81.92
2019-02-10T04:39:50.442Z,82.34
2019-02-10T04:42:53.532Z,82.30
2019-02-10T04:45:56.604Z,82.52
2019-02-10T04:48:59.738Z,82.63
2019-02-10T04:52:02.821Z,82.45
2019-02-10T04:55:06.059Z,82.46
2019-02-10T04:58:09.203Z,82.11
2019-02-10T05:01:12.297Z,81.98
2019-02-10T05:04:15.399Z,81.91
2019-02-10T05:07:18.467Z,81.78
2019-02-10T05:10:21.866Z,80.97
2019-02-10T05:13:24.666Z,81.09
2019-02-10T05:16:27.724Z,81.19
2019-02-10T05:19:30.852Z,80.98
2019-02-10T05:22:33.932Z,80.81
2019-02-10T05:25:37.038Z,80.72
2019-02-10T05:28:40.130Z,80.96
2019-02-10T05:31:43.229Z,79.95
2019-02-10T05:34:46.308Z,80.49
2019-02-10T05:37:49.400Z,79.69
2019-02-10T05:40:52.487Z,79.69
2019-02-10T05:43:55.579Z,79.10
2019-02-10T05:46:58.671Z,79.54
2019-02-10T05:50:01.768Z,79.69
2019-02-10T05:53:04.899Z,79.88
2019-02-10T05:56:08.058Z,79.27
2019-02-10T05:59:11.139Z,79.04
2019-02-10T06:02:23.009Z,79.26
2019-02-10T06:05:27.832Z,78.87
2019-02-10T06:08:30.922Z,78.40
2019-02-10T06:11:34.066Z,78.88
2019-02-10T06:14:37.158Z,78.34
2019-02-10T06:17:40.250Z,78.72
2019-02-10T06:20:43.334Z,78.33
2019-02-10T06:23:46.439Z,78.83
2019-02-10T06:26:49.534Z,77.58
2019-02-10T06:29:52.618Z,77.50
2019-02-10T06:32:55.725Z,77.49
2019-02-10T06:35:59.796Z,77.82
2019-02-10T06:39:02.976Z,78.26
2019-02-10T06:42:06.118Z,78.32
2019-02-10T06:45:11.552Z,77.87
2019-02-10T06:48:14.663Z,77.64
2019-02-10T06:51:17.724Z,78.44
2019-02-10T06:54:20.798Z,79.14
2019-02-10T06:57:26.067Z,79.22
2019-02-10T07:01:01.362Z,78.89
2019-02-10T07:04:11.579Z,78.94
2019-02-10T07:07:14.660Z,79.13
2019-02-10T07:10:17.904Z,78.65
2019-02-10T07:13:29.387Z,78.49
2019-02-10T07:16:35.967Z,78.27
2019-02-10T07:19:50.396Z,77.86
2019-02-10T07:22:56.227Z,77.65
2019-02-10T07:26:01.155Z,77.28
2019-02-10T07:29:17.158Z,76.85
2019-02-10T07:32:25.082Z,77.69
2019-02-10T07:37:42.324Z,77.71
2019-02-10T07:40:59.141Z,77.44
2019-02-10T07:44:16.561Z,77.19
2019-02-10T07:47:34.484Z,77.22
2019-02-10T07:51:55.815Z,77.35
2019-02-10T07:55:28.961Z,77.09
2019-02-10T07:58:42.063Z,77.33
2019-02-10T08:04:03.216Z,75.66
2019-02-10T08:07:25.583Z,76.04
2019-02-10T08:12:44.000Z,76.46
2019-02-10T08:16:01.824Z,77.97
2019-02-10T08:19:45.643Z,77.67
2019-02-10T08:23:00.771Z,77.24
2019-02-10T08:26:53.524Z,77.74
2019-02-10T08:30:06.925Z,76.54
2019-02-10T08:33:53.456Z,74.87
2019-02-10T08:37:22.302Z,72.48
2019-02-10T08:40:39.464Z,70.79
2019-02-10T08:43:50.552Z,69.72
2019-02-10T08:49:05.688Z,69.53
2019-02-10T08:53:22.573Z,68.97
2019-02-10T08:56:25.650Z,68.86
2019-02-10T08:59:28.736Z,67.68
2019-02-10T09:02:31.839Z,65.94
2019-02-10T09:05:34.927Z,65.52
2019-02-10T09:08:38.019Z,65.21
2019-02-10T09:11:41.094Z,65.06
2019-02-10T09:14:44.204Z,64.65
2019-02-10T09:17:47.378Z,64.99
2019-02-10T09:20:50.484Z,63.83
2019-02-10T09:23:53.549Z,62.30
2019-02-10T09:26:56.669Z,60.06
2019-02-10T09:29:59.771Z,59.03
2019-02-10T09:33:02.863Z,58.20
2019-02-10T09:36:05.938Z,56.25
2019-02-10T09:39:10.957Z,56.85
2019-02-10T09:42:12.239Z,57.65
2019-02-10T09:45:15.339Z,57.19
2019-02-10T09:48:18.508Z,55.99
2019-02-10T09:51:21.609Z,56.14
2019-02-10T09:54:24.703Z,55.79
2019-02-10T09:57:27.794Z,55.23
2019-02-10T10:00:30.919Z,55.21
2019-02-10T10:03:33.987Z,54.36
2019-02-10T10:06:37.069Z,53.43
2019-02-10T10:09:40.272Z,53.80
2019-02-10T10:12:43.356Z,52.29
2019-02-10T10:15:46.464Z,52.41
2019-02-10T10:18:49.656Z,51.39
2019-02-10T10:21:52.747Z,52.72
2019-02-10T10:24:55.939Z,52.26
2019-02-10T10:27:59.139Z,52.22
2019-02-10T10:31:02.233Z,51.80
2019-02-10T10:34:05.419Z,52.91
2019-02-10T10:37:08.949Z,52.01
2019-02-10T10:40:12.149Z,52.77
2019-02-10T10:43:15.219Z,53.02
2019-02-10T10:46:18.381Z,52.65
2019-02-10T10:49:21.484Z,53.34
2019-02-10T10:52:24.567Z,54.10
2019-02-10T10:55:27.674Z,54.11
2019-02-10T10:58:30.784Z,54.62
2019-02-10T11:01:33.855Z,55.68
2019-02-10T11:04:38.099Z,55.28
2019-02-10T11:07:42.832Z,55.80
2019-02-10T11:10:46.009Z,56.04
2019-02-10T11:13:49.203Z,56.85
2019-02-10T11:16:52.316Z,56.76
2019-02-10T11:19:55.500Z,57.04
2019-02-10T11:22:58.683Z,56.97
2019-02-10T11:26:01.858Z,56.86
2019-02-10T11:29:04.965Z,57.57
2019-02-10T11:32:08.028Z,56.40
2019-02-10T11:35:11.151Z,57.52
2019-02-10T11:38:14.240Z,58.03
2019-02-10T11:41:17.421Z,57.04
2019-02-10T11:44:20.527Z,58.07
2019-02-10T11:47:23.647Z,58.55
2019-02-10T11:50:26.818Z,57.59
2019-02-10T11:53:29.879Z,57.60
2019-02-10T11:56:32.976Z,57.71
2019-02-10T11:59:36.275Z,58.39
2019-02-10T12:02:39.347Z,59.49
2019-02-10T12:05:42.460Z,60.45
2019-02-10T12:08:45.579Z,62.09
2019-02-10T12:11:48.759Z,63.28
2019-02-10T12:14:51.912Z,65.63
2019-02-10T12:17:55.079Z,66.08
2019-02-10T12:20:58.199Z,69.17
2019-02-10T12:24:01.339Z,70.55
2019-02-10T12:27:04.425Z,75.51
2019-02-10T12:30:09.805Z,77.58
2019-02-10T12:33:12.871Z,78.68
2019-02-10T12:36:15.986Z,79.81
2019-02-10T12:39:19.035Z,81.65
2019-02-10T12:42:22.144Z,84.04
2019-02-10T12:45:25.408Z,85.51
2019-02-10T12:48:28.537Z,87.11
2019-02-10T12:51:31.599Z,89.22
2019-02-10T12:54:34.824Z,90.13
2019-02-10T12:57:37.906Z,89.00
2019-02-10T13:00:41.030Z,88.40
2019-02-10T13:03:44.187Z,88.71
2019-02-10T13:06:47.263Z,86.02
2019-02-10T13:09:50.387Z,88.00
2019-02-10T13:12:53.613Z,89.05
2019-02-10T13:15:56.659Z,89.46
2019-02-10T13:18:59.760Z,90.37
2019-02-10T13:22:02.855Z,88.93
2019-02-10T13:25:06.068Z,90.09
2019-02-10T13:28:09.233Z,90.41
2019-02-10T13:31:12.315Z,91.20
2019-02-10T13:34:15.421Z,91.32
2019-02-10T13:37:18.503Z,89.75
2019-02-10T13:40:21.599Z,90.80
2019-02-10T13:43:24.693Z,89.38
2019-02-10T13:46:27.792Z,90.05
2019-02-10T13:49:30.992Z,88.18
2019-02-10T13:52:34.554Z,89.81
2019-02-10T13:55:37.848Z,89.32
2019-02-10T13:58:41.851Z,89.17
2019-02-10T14:01:44.987Z,89.55
2019-02-10T14:04:48.091Z,89.64
2019-02-10T14:07:51.441Z,89.53
2019-02-10T14:10:54.263Z,88.91
2019-02-10T14:13:57.359Z,89.03
2019-02-10T14:17:01.899Z,89.29
2019-02-10T14:20:04.604Z,89.66
2019-02-10T14:23:07.789Z,88.39
2019-02-10T14:26:10.948Z,88.35
2019-02-10T14:29:14.039Z,88.25
2019-02-10T14:32:17.121Z,88.10
2019-02-10T14:35:20.338Z,90.35
2019-02-10T14:38:24.729Z,91.36
2019-02-10T14:41:26.643Z,92.15
2019-02-10T14:44:29.708Z,93.57
2019-02-10T14:47:32.780Z,95.92
2019-02-10T14:50:35.840Z,99.48
2019-02-10T14:53:38.902Z,96.28
2019-02-10T14:56:41.940Z,99.40
2019-02-10T14:59:45.059Z,98.77
2019-02-10T15:02:48.160Z,99.09
2019-02-10T15:05:51.243Z,99.68
2019-02-10T15:08:54.341Z,98.17
2019-02-10T15:11:57.445Z,97.03
2019-02-10T15:15:00.528Z,97.85
2019-02-10T15:18:03.639Z,99.33
2019-02-10T15:21:06.718Z,99.90
2019-02-10T15:24:09.907Z,100.00
2019-02-10T15:27:12.993Z,100.00
2019-02-10T15:30:16.116Z,100.00
2019-02-10T15:33:19.178Z,99.60
2019-02-10T15:36:22.241Z,96.04
2019-02-10T15:39:25.386Z,95.72
2019-02-10T15:42:28.436Z,93.43
2019-02-10T15:45:31.546Z,96.20
2019-02-10T15:48:34.643Z,95.30
2019-02-10T15:51:37.707Z,94.47
2019-02-10T15:54:40.767Z,95.31
2019-02-10T15:57:43.942Z,93.85
2019-02-10T16:00:47.133Z,94.31
2019-02-10T16:03:50.316Z,92.61
2019-02-10T16:06:53.392Z,92.25
2019-02-10T16:09:56.490Z,92.50
2019-02-10T16:12:59.579Z,91.86
2019-02-10T16:16:02.652Z,90.56
2019-02-10T16:19:05.722Z,90.68
2019-02-10T16:22:08.855Z,90.46
2019-02-10T16:25:11.954Z,91.69
2019-02-10T16:28:15.147Z,91.59
2019-02-10T16:31:18.250Z,91.08
2019-02-10T16:34:21.306Z,91.09
2019-02-10T16:37:24.371Z,91.68
2019-02-10T16:40:27.543Z,91.32
2019-02-10T16:43:30.704Z,90.48
2019-02-10T16:46:33.812Z,91.65
2019-02-10T16:49:36.950Z,90.87
2019-02-10T16:52:40.124Z,89.30
2019-02-10T16:55:43.284Z,89.73
2019-02-10T16:58:46.375Z,89.47
2019-02-10T17:01:49.484Z,89.25
2019-02-10T17:04:52.591Z,88.80
2019-02-10T17:07:55.758Z,89.39
2019-02-10T17:10:58.880Z,88.82
2019-02-10T17:14:02.028Z,88.12
2019-02-10T17:17:05.151Z,88.14
2019-02-10T17:20:08.723Z,87.73
2019-02-10T17:23:11.923Z,87.53
2019-02-10T17:26:15.019Z,86.88
2019-02-10T17:29:18.295Z,86.74
2019-02-10T17:32:21.478Z,86.09
2019-02-10T17:35:24.652Z,85.50
2019-02-10T17:38:27.754Z,85.48
2019-02-10T17:41:35.260Z,85.44
2019-02-10T17:44:38.450Z,85.86
2019-02-10T17:47:41.521Z,86.15
2019-02-10T17:50:44.592Z,86.85
2019-02-10T17:53:47.660Z,86.78
2019-02-10T17:56:50.719Z,86.46
2019-02-10T17:59:53.841Z,85.85
2019-02-10T18:02:56.934Z,85.32
2019-02-10T18:06:00.021Z,83.81
2019-02-10T18:09:03.140Z,83.09
2019-02-10T18:12:06.291Z,82.20
2019-02-10T18:17:16.756Z,80.27
2019-02-10T18:20:25.951Z,80.73
2019-02-10T18:23:39.216Z,80.67
2019-02-10T18:26:59.391Z,80.19
2019-02-10T18:30:07.836Z,80.52
2019-02-10T18:33:16.398Z,79.91
2019-02-10T18:36:23.655Z,79.81
2019-02-10T18:39:31.938Z,80.05
2019-02-10T18:42:41.228Z,80.08
2019-02-10T18:45:48.528Z,79.50
2019-02-10T18:49:00.885Z,79.12
2019-02-10T18:52:11.216Z,78.76
2019-02-10T18:55:38.501Z,79.69
2019-02-10T18:58:53.987Z,80.01
2019-02-10T19:01:54.215Z,80.40
2019-02-10T19:05:05.504Z,80.74
2019-02-10T19:08:14.689Z,80.12
2019-02-10T19:11:24.828Z,79.70
2019-02-10T19:14:50.024Z,80.29
2019-02-10T19:18:00.155Z,79.54
2019-02-10T19:21:10.479Z,79.16
2019-02-10T19:24:35.763Z,80.00
2019-02-10T19:28:48.187Z,80.34
2019-02-10T19:32:00.527Z,79.54
2019-02-10T19:35:09.227Z,78.00
2019-02-10T19:39:17.423Z,79.20
2019-02-10T19:42:30.599Z,82.01
2019-02-10T19:45:39.136Z,82.79
2019-02-10T19:50:49.613Z,84.06
2019-02-10T19:55:59.086Z,84.39
2019-02-10T19:59:07.486Z,83.50
2019-02-10T20:02:20.320Z,83.59
2019-02-10T20:05:27.149Z,85.47
2019-02-10T20:08:35.514Z,86.65
2019-02-10T20:11:44.711Z,88.82
2019-02-10T20:14:52.116Z,88.96
2019-02-10T20:18:03.432Z,90.71
2019-02-10T20:21:12.026Z,91.23
2019-02-10T20:24:19.267Z,92.10
2019-02-10T20:27:27.871Z,91.58
2019-02-10T20:30:36.407Z,92.06
2019-02-10T20:34:14.712Z,92.71
2019-02-10T20:37:22.862Z,93.32
2019-02-10T20:40:30.216Z,93.88
2019-02-10T20:43:43.440Z,94.28
2019-02-10T20:46:53.776Z,94.06
2019-02-10T20:50:01.015Z,94.06
2019-02-10T20:54:13.308Z,94.18
2019-02-10T20:57:20.599Z,92.80
2019-02-10T21:00:28.693Z,93.80
2019-02-10T21:03:39.883Z,93.52
2019-02-10T21:06:47.203Z,93.62
2019-02-10T21:11:57.580Z,93.09
2019-02-10T21:15:06.834Z,93.62
2019-02-10T21:18:20.127Z,92.03
2019-02-10T21:21:28.458Z,91.21
2019-02-10T21:24:36.948Z,89.84
2019-02-10T21:27:44.255Z,90.33
2019-02-10T21:30:52.746Z,90.35
2019-02-10T21:34:05.075Z,89.59
2019-02-10T21:37:16.331Z,88.25
2019-02-10T21:40:24.728Z,88.39
2019-02-10T21:43:35.073Z,87.25
2019-02-10T21:46:46.335Z,86.79
2019-02-10T21:49:49.443Z,87.83
2019-02-10T21:52:52.549Z,86.58
2019-02-10T21:55:55.725Z,86.73
2019-02-10T21:58:58.856Z,85.68
2019-02-10T22:02:02.041Z,85.60
2019-02-10T22:05:05.636Z,84.45
2019-02-10T22:08:08.707Z,84.32
2019-02-10T22:11:11.807Z,83.29
2019-02-10T22:14:14.943Z,83.50
2019-02-10T22:17:18.112Z,83.17
2019-02-10T22:20:21.305Z,82.81
2019-02-10T22:23:24.464Z,82.48
2019-02-10T22:26:27.563Z,82.44
2019-02-10T22:29:30.659Z,82.63
2019-02-10T22:32:33.751Z,83.26
2019-02-10T22:35:36.854Z,81.72
2019-02-10T22:38:40.862Z,82.02
2019-02-10T22:41:43.940Z,81.75
2019-02-10T22:44:47.011Z,80.61
2019-02-10T22:47:50.150Z,80.88
2019-02-10T22:50:53.207Z,81.02
2019-02-10T22:53:56.322Z,80.45
2019-02-10T22:56:59.410Z,81.79
2019-02-10T23:00:02.502Z,82.06
2019-02-10T23:03:05.599Z,81.80
2019-02-10T23:06:08.692Z,82.06
2019-02-10T23:09:16.795Z,82.93
2019-02-10T23:12:19.901Z,83.11
2019-02-10T23:15:22.987Z,83.98
2019-02-10T23:18:26.075Z,83.66
2019-02-10T23:21:29.143Z,84.70
2019-02-10T23:24:32.268Z,84.80
2019-02-10T23:27:35.340Z,84.83
2019-02-10T23:30:38.459Z,84.65
2019-02-10T23:33:41.563Z,84.80
2019-02-10T23:36:44.742Z,84.76
2019-02-10T23:39:47.836Z,85.29
2019-02-10T23:42:50.935Z,85.37
2019-02-10T23:45:54.124Z,85.14
2019-02-10T23:48:57.211Z,84.36
2019-02-10T23:52:00.310Z,84.65
2019-02-10T23:55:03.389Z,84.26
2019-02-10T23:58:06.472Z,83.95
